Time;durP1;ratioP1;P1;durP2;ratioP2;P2;SDS_P1;SDS_P2;PMS_P1;PMS_P2;Temp;Humidity;BMP_temperature;BMP_pressure;BME280_temperature;BME280_humidity;BME280_pressure;Samples;Min_cycle;Max_cycle;Signal;HPM_P1;HPM_P2
2022/02/24 00:00:19;;;;;;;52.38;26.90;;;6.10;57.90;;;;;;5037895;28;20033;-39
2022/02/24 00:02:46;;;;;;;48.25;25.55;;;6.10;58.00;;;;;;5037204;28;20037;-38
2022/02/24 00:05:12;;;;;;;51.90;26.65;;;6.10;58.10;;;;;;5037963;28;20061;-37
2022/02/24 00:07:38;;;;;;;51.55;25.92;;;6.10;58.20;;;;;;5037370;28;20033;-37
2022/02/24 00:10:06;;;;;;;53.60;25.05;;;6.10;58.10;;;;;;5037157;28;20449;-38
2022/02/24 00:12:31;;;;;;;54.08;25.52;;;6.10;58.10;;;;;;5037090;28;20033;-38
2022/02/24 00:14:58;;;;;;;45.80;22.20;;;6.10;58.20;;;;;;5037541;28;20041;-43
2022/02/24 00:17:23;;;;;;;46.13;22.30;;;6.10;58.10;;;;;;5036947;28;20025;-43
2022/02/24 00:19:49;;;;;;;46.30;22.23;;;6.10;58.20;;;;;;5037500;28;20033;-44
2022/02/24 00:22:15;;;;;;;47.60;23.02;;;6.10;58.20;;;;;;5035705;28;20121;-38
2022/02/24 00:24:41;;;;;;;42.05;22.10;;;6.20;58.30;;;;;;5037460;28;20065;-43
2022/02/24 00:27:06;;;;;;;43.67;22.23;;;6.20;58.40;;;;;;5037029;28;20124;-38
2022/02/24 00:29:32;;;;;;;55.03;28.73;;;6.20;58.40;;;;;;5037269;28;20068;-44
2022/02/24 00:31:58;;;;;;;63.13;30.92;;;6.20;58.50;;;;;;5036444;28;20052;-41
2022/02/24 00:34:24;;;;;;;56.30;29.00;;;6.20;58.70;;;;;;5037221;28;20029;-38
2022/02/24 00:36:53;;;;;;;41.80;22.95;;;6.20;58.80;;;;;;5036897;28;20021;-38
2022/02/24 00:39:20;;;;;;;44.30;23.15;;;6.30;58.90;;;;;;5036792;28;20040;-43
2022/02/24 00:41:47;;;;;;;39.20;20.88;;;6.20;58.90;;;;;;5036600;28;20064;-38
2022/02/24 00:44:13;;;;;;;42.13;22.45;;;6.20;59.00;;;;;;5036729;28;20047;-38
2022/02/24 00:46:40;;;;;;;41.03;22.90;;;6.30;58.90;;;;;;5035577;28;20038;-43
2022/02/24 00:49:07;;;;;;;50.15;24.75;;;6.30;58.90;;;;;;5036470;28;20447;-44
2022/02/24 00:51:33;;;;;;;40.92;22.05;;;6.30;58.60;;;;;;5036533;28;20072;-43
2022/02/24 00:53:59;;;;;;;41.97;21.80;;;6.30;58.70;;;;;;5036514;28;20033;-38
2022/02/24 00:56:25;;;;;;;44.13;23.80;;;6.20;58.60;;;;;;5036786;28;20101;-43
2022/02/24 00:58:51;;;;;;;47.67;24.10;;;6.20;58.50;;;;;;5036418;28;20034;-41
2022/02/24 01:01:17;;;;;;;48.22;25.10;;;6.20;58.60;;;;;;5036442;28;20099;-44
2022/02/24 01:03:42;;;;;;;47.28;24.52;;;6.10;58.70;;;;;;5036445;28;20041;-38
2022/02/24 01:06:08;;;;;;;41.55;23.58;;;6.10;58.80;;;;;;5036217;28;20374;-43
2022/02/24 01:08:34;;;;;;;49.83;25.38;;;6.00;58.90;;;;;;5036066;28;20041;-44
2022/02/24 01:10:59;;;;;;;46.28;23.77;;;6.00;59.10;;;;;;5035872;28;20030;-43
2022/02/24 01:13:25;;;;;;;49.10;25.15;;;5.90;59.20;;;;;;5036250;28;20021;-44
2022/02/24 01:15:51;;;;;;;52.83;25.33;;;5.90;59.30;;;;;;5036223;28;20056;-38
2022/02/24 01:18:17;;;;;;;43.75;23.50;;;5.90;59.40;;;;;;5035890;28;20357;-43
2022/02/24 01:20:43;;;;;;;52.33;24.80;;;5.80;59.40;;;;;;5036355;28;20033;-38
2022/02/24 01:23:09;;;;;;;44.47;23.23;;;5.80;59.40;;;;;;5035950;28;20372;-38
2022/02/24 01:25:34;;;;;;;45.75;24.42;;;5.80;59.40;;;;;;5036617;28;20427;-38
2022/02/24 01:28:01;;;;;;;46.50;25.85;;;5.80;59.40;;;;;;5035725;28;20036;-38
2022/02/24 01:30:27;;;;;;;47.55;26.55;;;5.80;59.50;;;;;;5036480;28;20296;-48
2022/02/24 01:32:52;;;;;;;52.70;27.00;;;5.70;59.60;;;;;;5035423;28;20083;-46
2022/02/24 01:35:19;;;;;;;46.10;23.25;;;5.70;59.80;;;;;;5036304;28;20033;-38
2022/02/24 01:37:47;;;;;;;53.45;26.13;;;5.60;60.00;;;;;;5035768;28;20025;-38
2022/02/24 01:40:15;;;;;;;60.83;28.42;;;5.60;60.10;;;;;;5036207;28;20033;-38
2022/02/24 01:42:41;;;;;;;57.63;28.23;;;5.60;60.20;;;;;;5035883;28;20026;-38
2022/02/24 01:45:08;;;;;;;48.50;26.08;;;5.60;60.20;;;;;;5036232;28;20034;-44
2022/02/24 01:47:34;;;;;;;50.03;27.63;;;5.50;60.30;;;;;;5035839;28;20033;-38
2022/02/24 01:50:00;;;;;;;49.97;27.27;;;5.50;60.30;;;;;;5036088;28;20037;-42
2022/02/24 01:52:27;;;;;;;55.47;28.65;;;5.50;60.40;;;;;;5035683;28;20322;-38
2022/02/24 01:54:53;;;;;;;49.65;26.65;;;5.50;60.40;;;;;;5036072;28;20033;-44
2022/02/24 01:57:19;;;;;;;53.97;27.13;;;5.40;60.50;;;;;;5035803;28;20310;-41
2022/02/24 01:59:46;;;;;;;53.45;25.48;;;5.50;60.50;;;;;;5036236;28;20333;-44
2022/02/24 02:02:16;;;;;;;53.55;27.58;;;5.40;60.30;;;;;;5035567;28;20429;-44
2022/02/24 02:04:44;;;;;;;55.83;29.05;;;5.40;60.40;;;;;;5036051;28;20033;-38
2022/02/24 02:07:11;;;;;;;54.55;27.25;;;5.40;60.50;;;;;;5035302;28;20071;-44
2022/02/24 02:09:37;;;;;;;53.42;28.65;;;5.30;60.60;;;;;;5035429;28;20061;-38
2022/02/24 02:12:04;;;;;;;47.72;25.10;;;5.20;60.80;;;;;;5035177;28;20030;-38
2022/02/24 02:14:30;;;;;;;53.13;26.70;;;5.20;61.00;;;;;;5036069;28;20034;-38
2022/02/24 02:16:56;;;;;;;113.40;48.92;;;5.10;61.00;;;;;;5035181;28;20033;-43
2022/02/24 02:19:22;;;;;;;105.47;44.25;;;5.20;61.00;;;;;;5035925;28;20033;-38
2022/02/24 02:21:48;;;;;;;51.90;28.92;;;5.10;60.90;;;;;;5037951;28;20032;-38
2022/02/24 02:24:14;;;;;;;50.60;26.92;;;5.10;61.10;;;;;;5039197;28;20144;-38
2022/02/24 02:26:40;;;;;;;52.50;27.70;;;5.10;61.20;;;;;;5039538;28;20152;-38
2022/02/24 02:29:09;;;;;;;55.80;28.63;;;5.10;61.20;;;;;;5039096;28;20034;-38
2022/02/24 02:31:35;;;;;;;50.67;26.38;;;5.10;61.30;;;;;;5039055;28;20030;-38
2022/02/24 02:34:06;;;;;;;55.17;28.45;;;5.10;61.40;;;;;;5039305;28;20037;-41
2022/02/24 02:36:33;;;;;;;57.72;29.95;;;5.10;61.40;;;;;;5039185;28;20033;-43
2022/02/24 02:38:59;;;;;;;51.63;29.20;;;5.10;61.50;;;;;;5039041;28;20030;-38
2022/02/24 02:41:29;;;;;;;57.58;30.75;;;5.00;61.50;;;;;;5039334;28;20029;-43
2022/02/24 02:43:55;;;;;;;57.80;28.10;;;5.00;61.80;;;;;;5038885;28;20375;-44
2022/02/24 02:46:21;;;;;;;50.70;28.67;;;4.90;61.80;;;;;;5039078;28;20321;-44
2022/02/24 02:48:46;;;;;;;57.53;29.20;;;5.00;61.90;;;;;;5038763;28;20041;-38
2022/02/24 02:51:12;;;;;;;55.45;30.73;;;5.00;61.90;;;;;;5038545;28;20037;-41
2022/02/24 02:53:38;;;;;;;65.32;32.95;;;5.00;62.00;;;;;;5038569;28;20037;-43
2022/02/24 02:56:04;;;;;;;59.20;30.92;;;5.00;62.00;;;;;;5038747;28;20022;-38
2022/02/24 02:58:29;;;;;;;58.95;32.42;;;4.90;62.00;;;;;;5038492;28;20080;-44
2022/02/24 03:00:56;;;;;;;61.75;31.23;;;4.90;62.10;;;;;;5038659;28;20361;-38
2022/02/24 03:03:24;;;;;;;57.20;32.40;;;4.80;62.30;;;;;;5038643;28;20303;-39
2022/02/24 03:05:51;;;;;;;66.38;33.40;;;4.80;62.50;;;;;;5038548;28;20414;-44
2022/02/24 03:08:16;;;;;;;63.05;32.38;;;4.80;62.70;;;;;;5038163;28;20378;-38
2022/02/24 03:10:42;;;;;;;59.95;33.35;;;4.80;62.70;;;;;;5038687;28;20036;-43
2022/02/24 03:13:08;;;;;;;61.75;33.33;;;4.80;62.70;;;;;;5037882;28;20030;-38
2022/02/24 03:15:34;;;;;;;64.88;32.88;;;4.80;62.70;;;;;;5038816;28;20034;-43
2022/02/24 03:18:00;;;;;;;63.30;33.92;;;4.90;62.80;;;;;;5038260;28;20176;-44
2022/02/24 03:20:30;;;;;;;63.65;33.75;;;4.90;62.80;;;;;;5038691;28;20365;-38
2022/02/24 03:23:00;;;;;;;72.80;37.75;;;5.00;62.70;;;;;;5037952;28;20037;-38
2022/02/24 03:25:26;;;;;;;88.88;42.30;;;5.00;62.60;;;;;;5038648;28;20138;-38
2022/02/24 03:27:53;;;;;;;72.97;37.35;;;5.00;62.50;;;;;;5038015;28;20033;-38
2022/02/24 03:30:19;;;;;;;58.63;34.42;;;5.10;62.50;;;;;;5038538;28;20045;-44
2022/02/24 03:32:46;;;;;;;71.13;35.78;;;5.10;62.60;;;;;;5036874;28;20087;-43
2022/02/24 03:35:12;;;;;;;65.57;34.58;;;5.10;62.60;;;;;;5038337;28;20037;-38
2022/02/24 03:37:39;;;;;;;74.85;37.67;;;5.20;62.80;;;;;;5037740;28;20032;-44
2022/02/24 03:40:07;;;;;;;62.53;34.92;;;5.20;62.70;;;;;;5038279;28;20045;-37
2022/02/24 03:42:33;;;;;;;69.03;35.13;;;5.20;62.70;;;;;;5037496;28;20038;-38
2022/02/24 03:44:59;;;;;;;69.07;37.35;;;5.20;62.80;;;;;;5038204;28;20033;-38
2022/02/24 03:47:25;;;;;;;71.68;38.97;;;5.20;62.90;;;;;;5037894;28;20318;-44
2022/02/24 03:49:51;;;;;;;75.68;37.90;;;5.20;63.00;;;;;;5038070;28;20037;-43
2022/02/24 03:52:17;;;;;;;89.43;47.33;;;5.20;62.90;;;;;;5037423;28;20072;-38
2022/02/24 03:54:44;;;;;;;87.47;45.88;;;5.30;62.80;;;;;;5038015;28;20033;-44
2022/02/24 03:57:10;;;;;;;79.90;39.75;;;5.30;62.80;;;;;;5037307;28;20026;-40
2022/02/24 03:59:37;;;;;;;75.70;38.97;;;5.30;62.80;;;;;;5038202;28;20451;-44
2022/02/24 04:02:04;;;;;;;78.00;36.78;;;5.30;62.70;;;;;;5037463;28;20030;-43
2022/02/24 04:04:31;;;;;;;76.65;38.95;;;5.30;62.70;;;;;;5037889;28;20322;-43
2022/02/24 04:06:56;;;;;;;65.43;35.70;;;5.30;62.70;;;;;;5037109;28;20037;-38
2022/02/24 04:09:22;;;;;;;69.32;35.42;;;5.30;62.80;;;;;;5037219;28;20065;-47
2022/02/24 04:11:48;;;;;;;72.57;40.33;;;5.30;62.70;;;;;;5036787;28;20026;-38
2022/02/24 04:14:14;;;;;;;80.65;43.80;;;5.40;62.80;;;;;;5037323;28;20033;-38
2022/02/24 04:16:40;;;;;;;71.22;34.88;;;5.40;62.70;;;;;;5037350;28;20108;-44
2022/02/24 04:19:05;;;;;;;73.63;34.05;;;5.40;62.60;;;;;;5037001;28;20121;-38
2022/02/24 04:21:31;;;;;;;64.63;35.38;;;5.40;62.60;;;;;;5037003;28;20033;-43
2022/02/24 04:23:57;;;;;;;82.75;45.50;;;5.50;63.10;;;;;;5037049;28;20041;-38
2022/02/24 04:26:22;;;;;;;65.93;36.08;;;5.50;62.50;;;;;;5037193;28;20345;-43
2022/02/24 04:28:48;;;;;;;73.00;37.45;;;5.50;62.50;;;;;;5037032;28;20037;-45
2022/02/24 04:31:14;;;;;;;74.68;41.78;;;5.50;62.50;;;;;;5036662;28;20068;-38
2022/02/24 04:33:39;;;;;;;83.22;42.00;;;5.50;62.50;;;;;;5036819;28;20057;-45
2022/02/24 04:36:05;;;;;;;79.50;40.17;;;5.50;62.60;;;;;;5037097;28;20061;-38
2022/02/24 04:38:31;;;;;;;72.88;39.47;;;5.60;62.70;;;;;;5036599;28;20383;-43
2022/02/24 04:40:56;;;;;;;71.72;38.70;;;5.60;62.70;;;;;;5036872;28;20029;-38
2022/02/24 04:43:22;;;;;;;65.32;34.15;;;5.50;62.70;;;;;;5036580;28;20056;-38
2022/02/24 04:45:48;;;;;;;68.60;37.45;;;5.50;62.70;;;;;;5036260;28;20033;-38
2022/02/24 04:48:14;;;;;;;72.82;36.22;;;5.50;62.80;;;;;;5035863;28;20079;-43
2022/02/24 04:50:40;;;;;;;70.43;35.45;;;5.50;62.90;;;;;;5036001;28;20048;-38
2022/02/24 04:53:05;;;;;;;71.60;37.25;;;5.60;63.00;;;;;;5035817;28;20068;-45
2022/02/24 04:55:31;;;;;;;64.70;36.72;;;5.50;62.90;;;;;;5036688;28;20061;-45
2022/02/24 04:57:57;;;;;;;77.65;40.10;;;5.60;63.00;;;;;;5035558;28;20034;-38
2022/02/24 05:00:23;;;;;;;112.80;55.55;;;5.50;63.00;;;;;;5036547;28;20410;-44
2022/02/24 05:02:48;;;;;;;93.32;46.97;;;5.60;63.10;;;;;;5035978;28;20037;-44
2022/02/24 05:05:14;;;;;;;89.22;44.85;;;5.60;63.20;;;;;;5036535;28;20040;-38
2022/02/24 05:07:40;;;;;;;83.03;43.50;;;5.60;63.30;;;;;;5036330;28;20041;-38
2022/02/24 05:10:09;;;;;;;78.95;41.78;;;5.60;63.40;;;;;;5035793;28;20057;-37
2022/02/24 05:12:35;;;;;;;79.32;40.97;;;5.60;63.30;;;;;;5035819;28;20041;-43
2022/02/24 05:15:02;;;;;;;65.55;34.75;;;5.60;63.30;;;;;;5036314;28;20053;-37
2022/02/24 05:17:28;;;;;;;63.95;36.13;;;5.60;63.40;;;;;;5035711;28;20053;-43
2022/02/24 05:19:54;;;;;;;61.88;34.95;;;5.60;63.40;;;;;;5036338;28;20057;-38
2022/02/24 05:22:19;;;;;;;61.55;34.15;;;5.60;63.50;;;;;;5035608;28;20474;-45
2022/02/24 05:24:45;;;;;;;59.53;32.67;;;5.60;63.50;;;;;;5036235;28;20033;-37
2022/02/24 05:27:11;;;;;;;56.90;30.65;;;5.60;63.60;;;;;;5035556;28;20025;-43
2022/02/24 05:29:36;;;;;;;64.82;30.23;;;5.60;63.80;;;;;;5035986;28;20041;-43
2022/02/24 05:32:03;;;;;;;60.00;31.60;;;5.60;63.80;;;;;;5035101;28;20041;-38
2022/02/24 05:34:30;;;;;;;62.40;31.77;;;5.60;63.90;;;;;;5035754;28;20033;-38
2022/02/24 05:36:55;;;;;;;70.97;34.53;;;5.60;64.00;;;;;;5035381;28;20081;-44
2022/02/24 05:39:21;;;;;;;100.35;52.60;;;5.70;64.10;;;;;;5036001;28;20034;-38
2022/02/24 05:41:47;;;;;;;91.32;49.25;;;5.70;64.20;;;;;;5035588;28;20034;-37
2022/02/24 05:44:13;;;;;;;81.97;45.08;;;5.70;64.30;;;;;;5035333;28;20041;-38
2022/02/24 05:46:38;;;;;;;73.28;40.70;;;5.70;64.30;;;;;;5035231;28;20079;-38
2022/02/24 05:49:04;;;;;;;64.90;38.42;;;5.70;64.30;;;;;;5035516;28;20306;-43
2022/02/24 05:51:30;;;;;;;112.20;53.63;;;5.80;64.50;;;;;;5035075;28;20021;-47
2022/02/24 05:53:55;;;;;;;147.77;67.97;;;5.90;64.60;;;;;;5035373;28;20022;-38
2022/02/24 05:56:21;;;;;;;188.95;83.38;;;5.90;64.50;;;;;;5037165;28;20449;-37
2022/02/24 05:58:47;;;;;;;116.55;54.00;;;6.00;64.60;;;;;;5039303;28;20026;-38
2022/02/24 06:01:13;;;;;;;127.80;57.42;;;6.10;64.60;;;;;;5039389;28;20026;-43
2022/02/24 06:03:39;;;;;;;124.60;56.10;;;6.20;64.50;;;;;;5038919;28;20091;-37
2022/02/24 06:06:04;;;;;;;102.60;50.25;;;6.30;64.50;;;;;;5039020;28;20052;-38
2022/02/24 06:08:30;;;;;;;98.03;46.22;;;6.40;64.60;;;;;;5038853;28;20112;-38
2022/02/24 06:10:55;;;;;;;50.50;25.23;;;6.40;64.60;;;;;;5038641;28;20425;-43
2022/02/24 06:13:21;;;;;;;80.22;33.88;;;6.50;64.40;;;;;;5038347;28;20033;-43
2022/02/24 06:15:47;;;;;;;55.28;24.88;;;6.60;64.30;;;;;;5037710;28;20060;-44
2022/02/24 06:18:18;;;;;;;46.50;20.90;;;6.70;64.30;;;;;;5038217;28;20028;-44
2022/02/24 06:20:44;;;;;;;38.45;17.80;;;6.80;64.10;;;;;;5038991;28;20144;-38
2022/02/24 06:23:09;;;;;;;105.25;40.85;;;6.90;63.90;;;;;;5038383;28;20049;-39
2022/02/24 06:25:35;;;;;;;51.92;23.00;;;7.00;63.70;;;;;;5038202;28;20349;-38
2022/02/24 06:28:01;;;;;;;156.25;68.43;;;7.10;63.50;;;;;;5035529;28;20032;-37
2022/02/24 06:30:27;;;;;;;73.57;33.70;;;7.20;63.40;;;;;;5058052;28;20078;-37
2022/02/24 06:32:52;;;;;;;224.30;105.22;;;7.30;63.40;;;;;;5057394;28;20033;-38
2022/02/24 06:35:18;;;;;;;438.45;225.95;;;7.50;63.50;;;;;;5058691;28;20021;-43
2022/02/24 06:37:44;;;;;;;180.23;91.25;;;7.60;63.50;;;;;;5058055;28;20070;-45
2022/02/24 06:40:13;;;;;;;158.18;73.30;;;7.70;63.40;;;;;;5058100;28;20434;-44
2022/02/24 06:42:40;;;;;;;143.38;74.60;;;7.80;63.30;;;;;;5058033;28;20103;-38
2022/02/24 06:45:06;;;;;;;688.53;309.63;;;7.90;63.10;;;;;;5058153;28;20401;-37
2022/02/24 06:47:33;;;;;;;409.42;154.93;;;8.00;62.90;;;;;;5057655;28;20102;-38
2022/02/24 06:49:58;;;;;;;327.00;136.52;;;8.10;62.70;;;;;;5057844;28;20033;-46
2022/02/24 06:52:24;;;;;;;242.40;109.00;;;8.20;62.50;;;;;;5057417;28;20440;-39
2022/02/24 06:54:50;;;;;;;132.85;61.75;;;8.20;62.20;;;;;;5058137;28;20029;-38
2022/02/24 06:57:15;;;;;;;96.88;47.90;;;8.30;61.90;;;;;;5057295;28;20417;-39
2022/02/24 06:59:41;;;;;;;167.57;77.40;;;8.40;61.70;;;;;;5057948;28;20409;-38
2022/02/24 07:02:08;;;;;;;86.80;41.38;;;8.50;61.50;;;;;;5057314;28;20037;-38
2022/02/24 07:04:34;;;;;;;742.85;306.08;;;8.50;61.30;;;;;;5057468;28;20032;-38
2022/02/24 07:07:00;;;;;;;75.13;37.72;;;8.60;61.00;;;;;;5056290;28;20033;-38
2022/02/24 07:09:26;;;;;;;64.80;34.17;;;8.60;60.80;;;;;;5057170;28;20049;-38
2022/02/24 07:11:52;;;;;;;68.47;32.95;;;8.60;60.20;;;;;;5057031;28;20032;-37
2022/02/24 07:14:19;;;;;;;58.30;30.25;;;8.60;60.10;;;;;;5057581;28;20035;-38
2022/02/24 07:16:45;;;;;;;71.68;32.95;;;8.60;59.90;;;;;;5057404;28;20021;-37
2022/02/24 07:19:11;;;;;;;352.42;135.15;;;8.50;59.70;;;;;;5057760;28;20044;-38
2022/02/24 07:21:37;;;;;;;57.20;30.25;;;8.50;59.70;;;;;;5057238;28;20104;-43
2022/02/24 07:24:03;;;;;;;121.57;48.35;;;8.50;59.50;;;;;;5057216;28;20044;-45
2022/02/24 07:26:28;;;;;;;420.15;153.55;;;8.50;59.50;;;;;;5057054;28;20032;-38
2022/02/24 07:28:54;;;;;;;190.98;78.55;;;8.50;59.70;;;;;;5056967;28;20033;-38
2022/02/24 07:31:21;;;;;;;331.20;136.80;;;8.50;59.60;;;;;;5057136;28;20329;-38
2022/02/24 07:33:47;;;;;;;118.50;58.65;;;8.50;59.60;;;;;;5057130;28;20107;-38
2022/02/24 07:36:14;;;;;;;56.72;30.35;;;8.50;59.70;;;;;;5056440;28;20078;-38
2022/02/24 07:38:39;;;;;;;59.72;32.20;;;8.50;59.70;;;;;;5057141;28;20032;-37
2022/02/24 07:41:05;;;;;;;335.13;168.80;;;8.40;59.70;;;;;;5057181;28;20033;-43
2022/02/24 07:43:32;;;;;;;55.90;30.52;;;8.40;60.00;;;;;;5056910;28;20128;-38
2022/02/24 07:45:58;;;;;;;79.05;41.58;;;8.30;60.40;;;;;;5057288;28;20065;-38
2022/02/24 07:48:25;;;;;;;44.30;25.27;;;8.30;60.80;;;;;;5056630;28;20028;-39
2022/02/24 07:50:50;;;;;;;39.80;24.38;;;8.30;61.00;;;;;;5057174;28;20033;-37
2022/02/24 07:53:16;;;;;;;36.90;21.95;;;8.20;61.30;;;;;;5056338;28;20433;-37
2022/02/24 07:55:42;;;;;;;36.40;21.48;;;8.20;61.30;;;;;;5057084;28;20028;-38
2022/02/24 07:58:09;;;;;;;32.88;20.30;;;8.20;61.30;;;;;;5056893;28;20370;-43
2022/02/24 08:00:35;;;;;;;32.45;19.77;;;8.10;61.50;;;;;;5056954;28;20045;-44
2022/02/24 08:03:02;;;;;;;40.72;23.25;;;8.10;61.50;;;;;;5057170;28;20356;-38
2022/02/24 08:05:27;;;;;;;42.28;21.77;;;8.10;61.50;;;;;;5056933;28;20044;-38
2022/02/24 08:07:53;;;;;;;39.17;19.77;;;8.00;61.80;;;;;;5056470;28;20048;-44
2022/02/24 08:10:19;;;;;;;28.48;18.02;;;8.00;62.10;;;;;;5056251;28;20056;-43
2022/02/24 08:12:47;;;;;;;38.38;21.17;;;8.00;63.10;;;;;;5056068;28;20170;-40
2022/02/24 08:15:15;;;;;;;29.40;18.10;;;8.00;63.00;;;;;;5056879;28;20045;-38
2022/02/24 08:17:41;;;;;;;25.33;16.63;;;8.00;63.30;;;;;;5056603;28;20057;-38
2022/02/24 08:20:08;;;;;;;52.45;27.63;;;7.90;63.60;;;;;;5056341;28;20045;-37
2022/02/24 08:22:35;;;;;;;33.13;20.40;;;7.90;64.00;;;;;;5056513;28;20128;-43
2022/02/24 08:25:01;;;;;;;64.70;34.42;;;7.90;64.50;;;;;;5056647;28;20044;-43
2022/02/24 08:27:27;;;;;;;30.48;18.23;;;7.90;64.80;;;;;;5056084;28;20033;-43
2022/02/24 08:29:52;;;;;;;30.58;16.70;;;8.00;64.80;;;;;;5056572;28;20106;-38
2022/02/24 08:32:18;;;;;;;32.47;18.38;;;7.90;65.00;;;;;;5055934;28;20156;-43
2022/02/24 08:34:43;;;;;;;26.85;16.70;;;8.00;65.10;;;;;;5056632;28;20033;-43
2022/02/24 08:37:09;;;;;;;27.80;16.95;;;8.00;65.00;;;;;;5056223;28;20320;-43
2022/02/24 08:39:35;;;;;;;27.23;17.50;;;8.00;65.00;;;;;;5056423;28;20045;-43
2022/02/24 08:42:01;;;;;;;31.10;18.00;;;8.00;64.90;;;;;;5055781;28;20029;-44
2022/02/24 08:44:26;;;;;;;22.55;16.17;;;8.10;64.60;;;;;;5056199;28;20063;-44
2022/02/24 08:46:53;;;;;;;29.35;17.88;;;8.10;64.50;;;;;;5055917;28;20267;-38
2022/02/24 08:49:18;;;;;;;30.88;18.77;;;8.10;64.70;;;;;;5056219;28;20037;-38
2022/02/24 08:51:44;;;;;;;29.58;17.95;;;8.00;64.90;;;;;;5055950;28;20294;-44
2022/02/24 08:54:10;;;;;;;33.83;18.33;;;8.10;65.50;;;;;;5055474;28;20051;-45
2022/02/24 08:56:35;;;;;;;28.63;17.15;;;8.10;65.50;;;;;;5055764;28;20040;-45
2022/02/24 08:59:01;;;;;;;51.35;27.25;;;8.20;65.50;;;;;;5055506;28;20405;-44
2022/02/24 09:01:27;;;;;;;380.33;169.23;;;8.30;65.50;;;;;;5055209;28;20044;-45
2022/02/24 09:03:52;;;;;;;27.35;14.88;;;8.30;65.60;;;;;;5055120;28;20025;-38
2022/02/24 09:06:18;;;;;;;23.95;14.40;;;8.40;65.20;;;;;;5055055;28;20025;-37
2022/02/24 09:08:44;;;;;;;26.05;16.08;;;8.50;64.90;;;;;;5055225;28;20348;-38
2022/02/24 09:11:10;;;;;;;28.50;16.38;;;8.50;64.80;;;;;;5055374;28;20113;-38
2022/02/24 09:13:39;;;;;;;92.28;47.50;;;8.50;65.20;;;;;;5055384;28;20114;-38
2022/02/24 09:16:06;;;;;;;110.53;52.97;;;8.60;65.20;;;;;;5055518;28;20101;-43
2022/02/24 09:18:32;;;;;;;32.20;17.05;;;8.60;65.10;;;;;;5055353;28;20108;-43
2022/02/24 09:20:58;;;;;;;40.30;22.13;;;8.70;65.10;;;;;;5055446;28;20099;-44
2022/02/24 09:23:23;;;;;;;20.92;13.65;;;8.70;65.10;;;;;;5055392;28;20049;-38
2022/02/24 09:25:49;;;;;;;33.13;20.85;;;8.70;64.70;;;;;;5055275;28;20083;-38
2022/02/24 09:28:15;;;;;;;123.20;82.15;;;8.70;64.50;;;;;;5055144;28;20072;-43
2022/02/24 09:30:41;;;;;;;56.60;36.20;;;8.80;64.70;;;;;;5054962;28;20080;-38
2022/02/24 09:33:06;;;;;;;23.85;15.55;;;8.80;64.40;;;;;;5055001;28;20029;-44
2022/02/24 09:35:33;;;;;;;49.95;26.60;;;8.90;64.10;;;;;;5055950;28;20428;-43
2022/02/24 09:37:58;;;;;;;22.85;13.98;;;8.90;64.00;;;;;;5055348;28;20352;-43
2022/02/24 09:40:25;;;;;;;23.58;14.18;;;9.00;64.10;;;;;;5053220;28;20025;-48
2022/02/24 09:42:51;;;;;;;69.68;34.45;;;9.00;64.00;;;;;;5054960;28;20051;-38
2022/02/24 09:45:17;;;;;;;53.88;27.23;;;9.10;64.20;;;;;;5055016;28;20037;-47
2022/02/24 09:47:44;;;;;;;25.02;15.13;;;9.20;64.30;;;;;;5053824;28;20025;-38
2022/02/24 09:50:09;;;;;;;96.90;48.85;;;9.30;63.60;;;;;;5055316;28;20120;-37
2022/02/24 09:52:35;;;;;;;24.58;14.02;;;9.30;63.10;;;;;;5054779;28;20120;-44
2022/02/24 09:55:01;;;;;;;27.25;14.55;;;9.30;62.60;;;;;;5055349;28;20025;-43
2022/02/24 09:57:27;;;;;;;90.07;44.70;;;9.30;62.40;;;;;;5054798;28;20036;-44
2022/02/24 09:59:52;;;;;;;29.92;16.77;;;9.30;62.40;;;;;;5054887;28;20037;-45
2022/02/24 10:02:20;;;;;;;25.00;15.38;;;9.40;62.60;;;;;;5054480;28;20087;-43
2022/02/24 10:05:06;;;;;;;23.23;14.48;;;9.40;62.20;;;;;;5055560;28;20115;-44
2022/02/24 10:07:36;;;;;;;96.75;49.80;;;9.40;61.50;;;;;;5054929;28;20355;-38
2022/02/24 10:10:23;;;;;;;99.03;49.20;;;9.40;61.30;;;;;;5055002;28;20045;-41
2022/02/24 10:13:07;;;;;;;150.88;76.15;;;9.30;61.00;;;;;;5054726;28;20074;-45
2022/02/24 10:15:33;;;;;;;27.17;16.13;;;9.30;61.40;;;;;;5055380;28;20036;-47
2022/02/24 10:18:08;;;;;;;30.02;16.75;;;9.30;61.30;;;;;;5054720;28;20025;-44
2022/02/24 10:20:39;;;;;;;71.38;38.72;;;9.30;61.30;;;;;;5055083;28;20040;-39
2022/02/24 10:23:05;;;;;;;31.25;16.20;;;9.30;61.60;;;;;;5054809;28;20078;-45
2022/02/24 10:25:41;;;;;;;238.05;124.03;;;9.30;61.40;;;;;;5055449;28;20120;-38
2022/02/24 10:28:08;;;;;;;39.47;22.05;;;9.40;61.10;;;;;;5055195;28;20037;-45
2022/02/24 10:30:34;;;;;;;33.08;19.67;;;9.40;60.90;;;;;;5055162;28;20041;-48
2022/02/24 10:33:01;;;;;;;38.80;25.10;;;9.40;61.00;;;;;;5054265;28;20032;-39
2022/02/24 10:35:32;;;;;;;48.83;29.52;;;9.40;61.20;;;;;;5055291;28;20144;-38
2022/02/24 10:38:02;;;;;;;28.92;17.85;;;9.40;61.20;;;;;;5054627;28;20029;-46
2022/02/24 10:40:32;;;;;;;29.92;18.60;;;9.40;60.80;;;;;;5055243;28;20029;-38
2022/02/24 10:43:19;;;;;;;57.17;32.90;;;9.40;60.60;;;;;;5057391;28;20111;-37
2022/02/24 10:46:00;;;;;;;28.67;18.45;;;9.40;60.50;;;;;;5058384;28;20044;-38
2022/02/24 10:48:26;;;;;;;29.92;17.25;;;9.30;60.40;;;;;;5058139;28;20033;-37
2022/02/24 10:50:55;;;;;;;36.25;22.83;;;9.20;60.60;;;;;;5057526;28;20444;-44
2022/02/24 10:53:32;;;;;;;33.00;18.75;;;9.20;61.00;;;;;;5057797;28;20036;-44
2022/02/24 10:56:03;;;;;;;32.20;21.17;;;9.20;61.40;;;;;;5058019;28;20321;-39
2022/02/24 10:58:36;;;;;;;43.00;23.98;;;9.30;61.60;;;;;;5058342;28;20040;-45
2022/02/24 11:01:12;;;;;;;77.57;44.65;;;9.30;61.80;;;;;;5058357;28;20036;-39
2022/02/24 11:03:40;;;;;;;385.27;211.88;;;9.30;62.00;;;;;;5058046;28;20029;-38
2022/02/24 11:06:09;;;;;;;177.63;80.55;;;9.40;62.00;;;;;;5058017;28;20123;-39
2022/02/24 11:08:36;;;;;;;348.08;155.48;;;9.50;62.00;;;;;;5057514;28;20078;-40
2022/02/24 11:11:03;;;;;;;173.07;82.45;;;9.60;62.00;;;;;;5057539;28;20040;-39
2022/02/24 11:13:30;;;;;;;59.25;30.30;;;9.70;61.90;;;;;;5057580;28;20478;-40
2022/02/24 11:15:57;;;;;;;199.80;90.97;;;9.70;61.50;;;;;;5057956;28;20119;-38
2022/02/24 11:18:24;;;;;;;170.18;79.97;;;9.80;61.40;;;;;;5057672;28;20143;-39
2022/02/24 11:20:51;;;;;;;174.40;82.40;;;9.80;61.00;;;;;;5057987;28;20025;-45
2022/02/24 11:23:18;;;;;;;55.45;28.52;;;9.90;60.60;;;;;;5057834;28;20091;-45
2022/02/24 11:26:01;;;;;;;225.35;105.45;;;9.90;60.30;;;;;;5057541;28;20063;-45
2022/02/24 11:29:18;;;;;;;241.45;116.43;;;10.00;60.10;;;;;;5057431;28;20112;-39
2022/02/24 11:31:57;;;;;;;66.80;32.33;;;10.00;59.60;;;;;;5053928;28;20417;-45
2022/02/24 11:34:57;;;;;;;127.35;58.10;;;10.00;59.70;;;;;;5058039;28;20429;-45
2022/02/24 11:37:33;;;;;;;81.45;37.47;;;10.10;59.70;;;;;;5057544;28;20049;-40
2022/02/24 11:40:09;;;;;;;200.50;104.35;;;10.10;60.20;;;;;;5057776;28;20029;-46
2022/02/24 11:42:37;;;;;;;76.85;44.92;;;10.10;59.40;;;;;;5057222;28;20037;-39
2022/02/24 11:45:26;;;;;;;92.63;53.03;;;10.10;59.30;;;;;;5057646;28;20057;-39
2022/02/24 11:48:05;;;;;;;209.90;114.93;;;10.20;59.40;;;;;;5056819;28;20025;-44
2022/02/24 11:50:35;;;;;;;69.65;39.50;;;10.20;59.20;;;;;;5057538;28;20033;-39
2022/02/24 11:53:03;;;;;;;85.33;48.57;;;10.20;59.00;;;;;;5056297;28;20025;-39
2022/02/24 11:55:50;;;;;;;44.08;25.45;;;10.20;58.90;;;;;;5057305;28;20033;-39
2022/02/24 11:58:37;;;;;;;58.70;30.70;;;10.20;58.90;;;;;;5056609;28;20033;-39
2022/02/24 12:01:07;;;;;;;41.45;23.17;;;10.20;59.00;;;;;;5056900;28;20025;-39
2022/02/24 12:04:06;;;;;;;39.10;26.02;;;10.20;59.10;;;;;;5056527;28;20036;-40
2022/02/24 12:07:05;;;;;;;48.80;21.33;;;10.30;59.20;;;;;;5056166;28;20044;-40
2022/02/24 12:09:34;;;;;;;48.03;22.02;;;10.30;59.00;;;;;;5056363;28;20068;-46
2022/02/24 12:12:23;;;;;;;46.38;23.40;;;10.20;58.80;;;;;;5056888;28;20025;-40
2022/02/24 12:15:00;;;;;;;42.47;22.52;;;10.20;58.50;;;;;;5056973;28;20025;-40
2022/02/24 12:17:48;;;;;;;44.70;24.27;;;10.20;58.40;;;;;;5056314;28;20025;-39
2022/02/24 12:20:26;;;;;;;44.00;24.70;;;10.20;58.30;;;;;;5057013;28;20064;-39
2022/02/24 12:22:52;;;;;;;38.40;23.73;;;10.10;58.30;;;;;;5056788;28;20036;-38
2022/02/24 12:25:22;;;;;;;28.58;18.42;;;10.00;58.10;;;;;;5057282;28;20063;-46
2022/02/24 12:28:07;;;;;;;22.60;15.27;;;10.00;57.80;;;;;;5056736;28;20095;-44
2022/02/24 12:30:37;;;;;;;27.45;16.95;;;10.00;57.30;;;;;;5056944;28;20416;-38
2022/02/24 12:33:18;;;;;;;29.30;16.45;;;9.90;56.90;;;;;;5056115;28;20317;-42
2022/02/24 12:35:47;;;;;;;104.22;62.97;;;9.90;56.50;;;;;;5056614;28;20490;-39